createdAt,value
2018-06-05T00:00:59.709Z,91.10
2018-06-05T00:03:27.218Z,91.20
2018-06-05T00:05:54.774Z,91.20
2018-06-05T00:08:22.350Z,91.20
2018-06-05T00:10:49.905Z,91.20
2018-06-05T00:13:17.427Z,91.20
2018-06-05T00:15:44.951Z,91.30
2018-06-05T00:18:12.536Z,91.50
2018-06-05T00:20:40.060Z,91.40
2018-06-05T00:23:07.565Z,91.40
2018-06-05T00:25:35.089Z,91.80
2018-06-05T00:28:02.643Z,92.00
2018-06-05T00:30:30.152Z,92.20
2018-06-05T00:32:57.677Z,92.20
2018-06-05T00:35:25.253Z,92.30
2018-06-05T00:37:52.765Z,92.30
2018-06-05T00:40:20.300Z,92.30
2018-06-05T00:42:47.810Z,92.30
2018-06-05T00:45:15.332Z,92.30
2018-06-05T00:47:42.863Z,92.40
2018-06-05T00:50:10.370Z,92.50
2018-06-05T00:52:37.906Z,92.70
2018-06-05T00:55:05.422Z,93.10
2018-06-05T00:57:32.925Z,93.40
2018-06-05T01:00:00.466Z,93.60
2018-06-05T01:02:27.996Z,93.80
2018-06-05T01:04:55.514Z,93.60
2018-06-05T01:07:23.052Z,93.30
2018-06-05T01:09:50.593Z,93.30
2018-06-05T01:12:18.154Z,93.40
2018-06-05T01:14:45.689Z,93.50
2018-06-05T01:17:13.224Z,93.70
2018-06-05T01:19:40.781Z,93.70
2018-06-05T01:22:08.333Z,93.70
2018-06-05T01:24:35.987Z,93.60
2018-06-05T01:27:03.552Z,93.60
2018-06-05T01:29:31.056Z,93.60
2018-06-05T01:31:58.585Z,93.40
2018-06-05T01:34:26.111Z,93.50
2018-06-05T01:36:53.615Z,93.30
2018-06-05T01:39:21.138Z,93.40
2018-06-05T01:41:48.673Z,93.50
2018-06-05T01:44:16.192Z,93.70
2018-06-05T01:46:43.785Z,93.80
2018-06-05T01:49:11.282Z,94.00
2018-06-05T01:51:38.789Z,94.20
2018-06-05T01:54:06.303Z,94.30
2018-06-05T01:56:33.827Z,94.40
2018-06-05T01:59:01.389Z,94.30
2018-06-05T02:01:28.929Z,94.30
2018-06-05T02:03:56.457Z,94.40
2018-06-05T02:06:23.957Z,94.40
2018-06-05T02:08:51.484Z,94.40
2018-06-05T02:11:19.011Z,94.50
2018-06-05T02:13:46.535Z,94.50
2018-06-05T02:16:14.065Z,94.60
2018-06-05T02:18:41.609Z,94.40
2018-06-05T02:21:10.121Z,94.30
2018-06-05T02:23:37.722Z,94.30
2018-06-05T02:26:05.280Z,94.40
2018-06-05T02:28:32.789Z,94.50
2018-06-05T02:31:00.363Z,94.50
2018-06-05T02:33:27.872Z,95.00
2018-06-05T02:35:55.451Z,95.00
2018-06-05T02:38:22.947Z,94.60
2018-06-05T02:40:52.147Z,95.00
2018-06-05T02:43:19.721Z,95.30
2018-06-05T02:45:47.284Z,95.10
2018-06-05T02:48:14.801Z,95.10
2018-06-05T02:50:42.323Z,94.40
2018-06-05T02:53:09.893Z,94.40
2018-06-05T02:55:37.455Z,94.50
2018-06-05T02:58:05.003Z,94.70
2018-06-05T03:00:32.504Z,94.80
2018-06-05T03:03:00.039Z,94.70
2018-06-05T03:05:27.581Z,94.80
2018-06-05T03:07:55.130Z,94.70
2018-06-05T03:10:22.669Z,94.60
2018-06-05T03:12:50.192Z,94.20
2018-06-05T03:15:17.719Z,94.20
2018-06-05T03:17:45.260Z,93.90
2018-06-05T03:20:12.774Z,93.90
2018-06-05T03:22:40.318Z,93.80
2018-06-05T03:25:07.848Z,93.60
2018-06-05T03:27:35.348Z,93.40
2018-06-05T03:30:02.991Z,93.50
2018-06-05T03:32:30.532Z,93.40
2018-06-05T03:34:58.027Z,93.30
2018-06-05T03:37:25.611Z,93.20
2018-06-05T03:39:53.170Z,93.00
2018-06-05T03:42:20.668Z,92.80
2018-06-05T03:44:48.188Z,92.70
2018-06-05T03:47:15.820Z,92.70
2018-06-05T03:49:43.328Z,92.60
2018-06-05T03:52:10.926Z,92.50
2018-06-05T03:54:38.460Z,92.50
2018-06-05T03:57:06.194Z,92.60
2018-06-05T03:59:33.779Z,92.40
2018-06-05T04:02:01.270Z,92.40
2018-06-05T04:04:28.818Z,92.40
2018-06-05T04:06:56.386Z,92.50
2018-06-05T04:09:23.909Z,92.50
2018-06-05T04:11:51.439Z,92.40
2018-06-05T04:14:18.987Z,92.50
2018-06-05T04:16:49.145Z,92.40
2018-06-05T04:19:17.127Z,92.40
2018-06-05T04:21:44.662Z,92.40
2018-06-05T04:24:12.630Z,92.30
2018-06-05T04:26:40.256Z,92.30
2018-06-05T04:29:07.823Z,92.20
2018-06-05T04:31:35.322Z,92.20
2018-06-05T04:34:02.898Z,92.20
2018-06-05T04:36:30.434Z,92.00
2018-06-05T04:38:57.955Z,91.90
2018-06-05T04:41:25.553Z,91.90
2018-06-05T04:43:53.460Z,92.00
2018-06-05T04:46:21.048Z,91.90
2018-06-05T04:48:48.588Z,91.80
2018-06-05T04:51:16.134Z,91.80
2018-06-05T04:53:43.636Z,91.60
2018-06-05T04:56:11.163Z,91.60
2018-06-05T04:58:38.757Z,91.60
2018-06-05T05:01:06.469Z,91.30
2018-06-05T05:03:33.991Z,91.00
2018-06-05T05:06:01.513Z,91.20
2018-06-05T05:08:29.069Z,91.20
2018-06-05T05:10:56.609Z,91.10
2018-06-05T05:13:24.169Z,91.10
2018-06-05T05:15:51.720Z,90.90
2018-06-05T05:18:19.249Z,90.90
2018-06-05T05:20:46.773Z,90.90
2018-06-05T05:23:14.318Z,91.00
2018-06-05T05:25:42.025Z,91.20
2018-06-05T05:28:09.581Z,91.10
2018-06-05T05:30:37.128Z,90.70
2018-06-05T05:33:04.697Z,89.50
2018-06-05T05:35:32.243Z,89.20
2018-06-05T05:37:59.775Z,89.50
2018-06-05T05:40:27.278Z,88.70
2018-06-05T05:42:54.827Z,88.60
2018-06-05T05:45:22.326Z,88.60
2018-06-05T05:47:49.914Z,87.50
2018-06-05T05:50:17.478Z,87.80
2018-06-05T05:52:44.970Z,87.60
2018-06-05T05:55:12.533Z,87.70
2018-06-05T05:57:40.065Z,88.20
2018-06-05T06:00:07.586Z,88.70
2018-06-05T06:02:35.129Z,88.30
2018-06-05T06:05:02.745Z,88.40
2018-06-05T06:07:30.252Z,87.80
2018-06-05T06:09:57.742Z,87.70
2018-06-05T06:12:25.291Z,87.60
2018-06-05T06:14:52.840Z,87.20
2018-06-05T06:17:20.338Z,86.90
2018-06-05T06:19:47.878Z,86.30
2018-06-05T06:22:15.395Z,85.90
2018-06-05T06:24:42.942Z,85.30
2018-06-05T06:27:10.491Z,84.90
2018-06-05T06:29:38.001Z,85.70
2018-06-05T06:32:05.684Z,85.00
2018-06-05T06:34:33.209Z,85.30
2018-06-05T06:37:00.740Z,85.40
2018-06-05T06:39:28.279Z,85.70
2018-06-05T06:41:55.833Z,85.50
2018-06-05T06:44:23.340Z,85.50
2018-06-05T06:46:50.946Z,85.10
2018-06-05T06:49:18.479Z,84.90
2018-06-05T06:51:46.020Z,84.00
2018-06-05T06:56:41.070Z,84.10
2018-06-05T06:59:08.663Z,83.50
2018-06-05T07:01:36.219Z,84.10
2018-06-05T07:04:03.768Z,84.20
2018-06-05T07:06:31.290Z,84.30
2018-06-05T07:08:58.815Z,84.50
2018-06-05T07:11:26.343Z,84.40
2018-06-05T07:13:53.866Z,84.50
2018-06-05T07:16:21.413Z,84.90
2018-06-05T07:18:48.970Z,84.80
2018-06-05T07:21:16.472Z,84.00
2018-06-05T07:23:43.971Z,83.70
2018-06-05T07:26:11.493Z,83.80
2018-06-05T07:28:39.017Z,83.40
2018-06-05T07:31:06.530Z,83.60
2018-06-05T07:33:34.064Z,82.70
2018-06-05T07:36:01.565Z,81.80
2018-06-05T07:38:29.096Z,81.60
2018-06-05T07:40:56.667Z,82.00
2018-06-05T07:43:24.204Z,81.50
2018-06-05T07:45:51.845Z,81.60
2018-06-05T07:48:19.393Z,81.00
2018-06-05T07:50:46.905Z,80.90
2018-06-05T07:53:14.467Z,81.20
2018-06-05T07:55:42.006Z,81.10
2018-06-05T07:58:09.537Z,80.90
2018-06-05T08:00:37.071Z,80.70
2018-06-05T08:03:04.669Z,80.40
2018-06-05T08:05:32.163Z,80.50
2018-06-05T08:07:59.683Z,80.20
2018-06-05T08:10:27.230Z,79.90
2018-06-05T08:12:54.761Z,79.80
2018-06-05T08:15:22.301Z,79.00
2018-06-05T08:17:49.846Z,78.50
2018-06-05T08:20:17.384Z,77.20
2018-06-05T08:22:56.617Z,76.60
2018-06-05T08:25:24.159Z,76.90
2018-06-05T08:27:51.675Z,76.70
2018-06-05T08:30:19.197Z,76.90
2018-06-05T08:32:46.762Z,76.60
2018-06-05T08:35:14.281Z,76.30
2018-06-05T08:37:41.943Z,75.60
2018-06-05T08:40:09.491Z,75.00
2018-06-05T08:42:36.990Z,75.40
2018-06-05T08:45:04.572Z,75.10
2018-06-05T08:47:32.137Z,75.10
2018-06-05T08:49:59.672Z,74.30
2018-06-05T08:52:27.186Z,73.00
2018-06-05T08:54:54.754Z,73.30
2018-06-05T08:57:22.291Z,72.70
2018-06-05T08:59:49.873Z,71.80
2018-06-05T09:02:17.398Z,70.90
2018-06-05T09:04:44.935Z,71.00
2018-06-05T09:07:12.568Z,69.80
2018-06-05T09:09:40.089Z,68.00
2018-06-05T09:12:07.610Z,68.80
2018-06-05T09:14:35.187Z,68.30
2018-06-05T09:17:02.768Z,67.30
2018-06-05T09:19:30.296Z,67.30
2018-06-05T09:21:57.818Z,67.10
2018-06-05T09:24:25.321Z,66.90
2018-06-05T09:26:52.863Z,66.40
2018-06-05T09:29:20.382Z,65.10
2018-06-05T09:31:47.896Z,65.10
2018-06-05T09:34:15.438Z,64.60
2018-06-05T09:36:43.013Z,63.60
2018-06-05T09:39:10.540Z,62.70
2018-06-05T09:41:38.066Z,61.80
2018-06-05T09:44:05.655Z,61.90
2018-06-05T09:46:33.195Z,62.10
2018-06-05T09:49:00.718Z,61.70
2018-06-05T09:51:28.259Z,60.00
2018-06-05T09:53:55.819Z,59.40
2018-06-05T09:56:23.345Z,57.50
2018-06-05T09:58:50.905Z,56.80
2018-06-05T10:01:18.449Z,57.10
2018-06-05T10:03:46.026Z,56.60
2018-06-05T10:06:13.538Z,55.40
2018-06-05T10:08:41.059Z,54.50
2018-06-05T10:11:08.606Z,53.20
2018-06-05T10:13:36.171Z,52.50
2018-06-05T10:16:03.766Z,51.30
2018-06-05T10:18:31.323Z,51.00
2018-06-05T10:20:58.856Z,50.40
2018-06-05T10:23:26.355Z,49.60
2018-06-05T10:25:53.907Z,48.90
2018-06-05T10:28:21.455Z,48.20
2018-06-05T10:30:49.065Z,47.10
2018-06-05T10:33:16.581Z,46.80
2018-06-05T10:35:44.133Z,46.40
2018-06-05T10:38:11.648Z,45.40
2018-06-05T10:40:39.195Z,42.20
2018-06-05T10:43:06.745Z,41.60
2018-06-05T10:45:34.309Z,40.70
2018-06-05T10:48:01.846Z,39.80
2018-06-05T10:50:29.409Z,39.30
2018-06-05T10:52:56.930Z,37.10
2018-06-05T10:55:24.476Z,36.60
2018-06-05T10:57:51.999Z,36.70
2018-06-05T11:00:19.562Z,33.40
2018-06-05T11:02:47.049Z,32.10
2018-06-05T11:05:14.595Z,32.20
2018-06-05T11:07:42.094Z,31.80
2018-06-05T11:10:09.651Z,32.20
2018-06-05T11:12:37.191Z,33.10
2018-06-05T11:15:04.725Z,32.90
2018-06-05T11:17:32.414Z,32.60
2018-06-05T11:20:00.001Z,31.90
2018-06-05T11:22:27.505Z,31.50
2018-06-05T11:24:55.018Z,31.70
2018-06-05T11:27:22.589Z,31.40
2018-06-05T11:29:50.145Z,30.80
2018-06-05T11:32:17.662Z,31.00
2018-06-05T11:34:45.247Z,30.00
2018-06-05T11:37:12.782Z,30.90
2018-06-05T11:39:40.285Z,30.30
2018-06-05T11:42:07.850Z,30.40
2018-06-05T11:44:35.366Z,30.90
2018-06-05T11:47:02.892Z,30.60
2018-06-05T11:49:30.395Z,30.10
2018-06-05T11:51:57.954Z,30.30
2018-06-05T11:54:25.578Z,30.60
2018-06-05T11:56:53.095Z,30.00
2018-06-05T11:59:20.601Z,30.00
2018-06-05T12:01:48.221Z,29.80
2018-06-05T12:04:15.773Z,30.00
2018-06-05T12:06:43.304Z,29.40
2018-06-05T12:09:10.980Z,29.00
2018-06-05T12:11:38.507Z,28.50
2018-06-05T12:14:06.034Z,28.50
2018-06-05T12:16:33.579Z,28.60
2018-06-05T12:19:01.117Z,29.60
2018-06-05T12:21:28.641Z,29.40
2018-06-05T12:23:56.153Z,28.50
2018-06-05T12:26:23.692Z,27.90
2018-06-05T12:28:51.259Z,28.10
2018-06-05T12:31:18.777Z,28.30
2018-06-05T12:33:46.319Z,28.70
2018-06-05T12:36:13.841Z,29.00
2018-06-05T12:38:41.449Z,28.80
2018-06-05T12:41:08.991Z,29.20
2018-06-05T12:43:36.525Z,29.90
2018-06-05T12:46:04.092Z,31.00
2018-06-05T12:48:31.637Z,31.20
2018-06-05T12:50:59.161Z,30.80
2018-06-05T12:53:26.731Z,31.80
2018-06-05T12:55:54.285Z,33.00
2018-06-05T12:58:21.796Z,33.50
2018-06-05T13:00:49.324Z,33.20
2018-06-05T13:03:16.872Z,32.30
2018-06-05T13:05:44.441Z,32.20
2018-06-05T13:08:11.980Z,31.60
2018-06-05T13:10:39.540Z,31.00
2018-06-05T13:13:07.089Z,30.70
2018-06-05T13:15:34.647Z,29.60
2018-06-05T13:18:02.185Z,29.70
2018-06-05T13:20:29.740Z,29.20
2018-06-05T13:22:57.393Z,28.80
2018-06-05T13:25:24.824Z,28.60
2018-06-05T13:27:52.316Z,28.90
2018-06-05T13:30:19.856Z,28.90
2018-06-05T13:32:47.402Z,28.90
2018-06-05T13:35:14.912Z,29.40
2018-06-05T13:37:42.412Z,30.00
2018-06-05T13:40:09.948Z,31.20
2018-06-05T13:42:37.488Z,32.50
2018-06-05T13:45:05.003Z,32.80
2018-06-05T13:47:32.531Z,31.70
2018-06-05T13:50:00.092Z,31.30
2018-06-05T13:52:27.684Z,30.80
2018-06-05T13:54:55.194Z,30.70
2018-06-05T13:57:22.728Z,29.30
2018-06-05T13:59:50.305Z,28.50
2018-06-05T14:02:17.864Z,28.30
2018-06-05T14:04:45.514Z,27.80
2018-06-05T14:07:13.032Z,27.70
2018-06-05T14:09:40.573Z,27.80
2018-06-05T14:12:08.930Z,27.90
2018-06-05T14:14:36.458Z,27.60
2018-06-05T14:17:04.166Z,27.60
2018-06-05T14:19:31.747Z,28.70
2018-06-05T14:21:59.258Z,29.40
2018-06-05T14:24:26.827Z,29.90
2018-06-05T14:26:54.382Z,30.70
2018-06-05T14:29:21.916Z,32.30
2018-06-05T14:31:49.461Z,32.10
2018-06-05T14:34:16.991Z,31.00
2018-06-05T14:36:44.536Z,30.00
2018-06-05T14:39:12.162Z,28.80
2018-06-05T14:41:39.696Z,28.10
2018-06-05T14:44:07.264Z,28.20
2018-06-05T14:46:34.847Z,28.00
2018-06-05T14:49:02.368Z,27.50
2018-06-05T14:51:29.918Z,27.10
2018-06-05T14:53:57.458Z,27.60
2018-06-05T14:56:24.999Z,27.50
2018-06-05T14:58:52.560Z,27.60
2018-06-05T15:01:20.109Z,27.70
2018-06-05T15:03:47.606Z,27.60
2018-06-05T15:06:15.121Z,26.70
2018-06-05T15:08:42.691Z,26.90
2018-06-05T15:11:10.232Z,26.30
2018-06-05T15:13:37.727Z,26.00
2018-06-05T15:16:05.334Z,25.40
2018-06-05T15:18:32.863Z,25.30
2018-06-05T15:21:00.394Z,25.10
2018-06-05T15:23:27.956Z,25.50
2018-06-05T15:25:55.462Z,25.80
2018-06-05T15:28:22.992Z,26.10
2018-06-05T15:30:50.520Z,26.50
2018-06-05T15:33:18.107Z,27.00
2018-06-05T15:35:45.631Z,27.50
2018-06-05T15:38:13.183Z,27.60
2018-06-05T15:40:40.701Z,27.40
2018-06-05T15:43:08.258Z,27.10
2018-06-05T15:45:35.859Z,26.90
2018-06-05T15:48:03.413Z,27.00
2018-06-05T15:50:30.962Z,27.00
2018-06-05T15:52:58.478Z,26.80
2018-06-05T15:55:26.093Z,26.60
2018-06-05T15:57:53.596Z,26.60
2018-06-05T16:00:21.128Z,27.60
2018-06-05T16:02:48.687Z,27.60
2018-06-05T16:05:16.236Z,27.20
2018-06-05T16:07:43.842Z,27.10
2018-06-05T16:10:11.410Z,26.80
2018-06-05T16:12:38.964Z,27.20
2018-06-05T16:15:06.583Z,27.40
2018-06-05T16:17:34.122Z,27.50
2018-06-05T16:22:29.434Z,27.20
2018-06-05T16:24:57.014Z,27.70
2018-06-05T16:27:24.578Z,27.60
2018-06-05T16:29:52.150Z,27.30
2018-06-05T16:32:19.680Z,27.30
2018-06-05T16:34:47.192Z,27.20
2018-06-05T16:37:14.757Z,27.30
2018-06-05T16:39:42.276Z,27.60
2018-06-05T16:42:09.845Z,27.80
2018-06-05T16:44:37.499Z,28.00
2018-06-05T16:47:05.061Z,28.20
2018-06-05T16:49:32.620Z,28.30
2018-06-05T16:52:00.208Z,28.30
2018-06-05T16:54:27.772Z,28.70
2018-06-05T16:56:55.324Z,28.90
2018-06-05T16:59:22.930Z,29.10
2018-06-05T17:01:50.435Z,28.80
2018-06-05T17:04:18.058Z,29.10
2018-06-05T17:06:45.577Z,29.40
2018-06-05T17:09:13.146Z,29.60
2018-06-05T17:11:40.666Z,29.30
2018-06-05T17:14:08.249Z,29.90
2018-06-05T17:16:35.805Z,29.90
2018-06-05T17:19:03.354Z,30.00
2018-06-05T17:21:30.944Z,30.20
2018-06-05T17:23:58.515Z,30.30
2018-06-05T17:26:26.098Z,31.80
2018-06-05T17:28:53.680Z,33.10
2018-06-05T17:31:21.214Z,34.30
2018-06-05T17:33:48.791Z,35.00
2018-06-05T17:36:16.379Z,35.60
2018-06-05T17:38:43.935Z,36.20
2018-06-05T17:41:11.468Z,36.80
2018-06-05T17:43:39.020Z,37.00
2018-06-05T17:46:06.588Z,37.40
2018-06-05T17:48:34.130Z,37.90
2018-06-05T17:51:01.721Z,38.40
2018-06-05T17:53:29.257Z,39.10
2018-06-05T17:55:56.805Z,39.60
2018-06-05T17:58:24.375Z,39.90
2018-06-05T18:00:51.935Z,40.30
2018-06-05T18:03:19.482Z,41.10
2018-06-05T18:05:47.080Z,41.20
2018-06-05T18:08:14.666Z,41.50
2018-06-05T18:10:42.250Z,42.00
2018-06-05T18:13:09.852Z,42.40
2018-06-05T18:15:37.468Z,42.60
2018-06-05T18:18:05.067Z,43.00
2018-06-05T18:20:32.664Z,43.60
2018-06-05T18:23:00.224Z,44.10
2018-06-05T18:25:27.797Z,44.50
2018-06-05T18:27:55.353Z,45.00
2018-06-05T18:30:22.926Z,45.30
2018-06-05T18:32:50.476Z,45.70
2018-06-05T18:35:18.055Z,46.20
2018-06-05T18:37:45.669Z,46.50
2018-06-05T18:40:13.210Z,46.70
2018-06-05T18:42:40.865Z,47.10
2018-06-05T18:45:08.551Z,47.40
2018-06-05T18:47:36.135Z,47.50
2018-06-05T18:50:03.818Z,47.90
2018-06-05T18:52:31.461Z,48.00
2018-06-05T18:54:59.058Z,48.10
2018-06-05T18:57:26.771Z,48.50
2018-06-05T18:59:54.429Z,48.90
2018-06-05T19:02:22.073Z,49.60
2018-06-05T19:04:50.608Z,50.30
2018-06-05T19:07:18.163Z,50.50
2018-06-05T19:09:45.812Z,50.90
2018-06-05T19:12:13.456Z,51.10
2018-06-05T19:14:41.345Z,51.40
2018-06-05T19:17:08.980Z,51.80
2018-06-05T19:19:36.569Z,52.10
2018-06-05T19:22:04.414Z,52.50
2018-06-05T19:24:32.091Z,53.10
2018-06-05T19:26:59.774Z,54.00
2018-06-05T19:29:27.415Z,53.90
2018-06-05T19:31:55.190Z,54.10
2018-06-05T19:34:22.936Z,54.80
2018-06-05T19:36:50.566Z,55.20
2018-06-05T19:39:18.244Z,55.20
2018-06-05T19:41:45.900Z,55.50
2018-06-05T19:44:13.515Z,56.10
2018-06-05T19:46:41.214Z,56.60
2018-06-05T19:49:08.806Z,57.10
2018-06-05T19:51:36.385Z,57.60
2018-06-05T19:54:04.042Z,57.90
2018-06-05T19:56:31.688Z,58.10
2018-06-05T19:58:59.318Z,58.60
2018-06-05T20:01:26.990Z,59.10
2018-06-05T20:03:54.637Z,59.40
2018-06-05T20:06:22.226Z,60.00
2018-06-05T20:08:49.894Z,60.70
2018-06-05T20:11:17.708Z,60.80
2018-06-05T20:13:45.343Z,61.00
2018-06-05T20:16:12.981Z,61.40
2018-06-05T20:18:40.688Z,61.80
2018-06-05T20:21:08.345Z,61.80
2018-06-05T20:23:35.965Z,62.40
2018-06-05T20:26:03.606Z,62.60
2018-06-05T20:28:31.243Z,63.00
2018-06-05T20:30:58.792Z,62.90
2018-06-05T20:33:26.568Z,63.40
2018-06-05T20:35:54.177Z,63.70
2018-06-05T20:38:21.718Z,64.00
2018-06-05T20:40:49.278Z,64.40
2018-06-05T20:43:16.818Z,64.90
2018-06-05T20:45:44.402Z,65.30
2018-06-05T20:48:11.962Z,65.50
2018-06-05T20:50:39.508Z,66.10
2018-06-05T20:55:34.566Z,66.60
2018-06-05T20:58:02.124Z,66.90
2018-06-05T21:00:29.728Z,67.30
2018-06-05T21:02:57.319Z,67.90
2018-06-05T21:05:24.873Z,68.40
2018-06-05T21:07:52.395Z,68.50
2018-06-05T21:10:20.008Z,68.80
2018-06-05T21:12:47.557Z,69.10
2018-06-05T21:15:15.098Z,69.80
2018-06-05T21:17:42.755Z,70.20
2018-06-05T21:20:10.348Z,70.20
2018-06-05T21:22:38.024Z,70.40
2018-06-05T21:25:05.567Z,70.90
2018-06-05T21:27:33.105Z,71.10
2018-06-05T21:30:00.655Z,71.50
2018-06-05T21:32:28.195Z,72.00
2018-06-05T21:34:55.731Z,72.40
2018-06-05T21:37:23.296Z,72.70
2018-06-05T21:39:50.841Z,73.00
2018-06-05T21:42:18.373Z,73.50
2018-06-05T21:44:45.954Z,73.90
2018-06-05T21:47:13.503Z,74.30
2018-06-05T21:49:41.041Z,74.50
2018-06-05T21:52:08.590Z,74.90
2018-06-05T21:54:36.227Z,75.50
2018-06-05T21:57:03.825Z,75.70
2018-06-05T21:59:31.342Z,76.30
2018-06-05T22:01:58.995Z,76.60
2018-06-05T22:04:26.586Z,77.10
2018-06-05T22:06:54.155Z,77.70
2018-06-05T22:09:21.725Z,78.30
2018-06-05T22:11:49.259Z,78.40
2018-06-05T22:14:16.795Z,78.60
2018-06-05T22:16:44.323Z,78.90
2018-06-05T22:19:11.867Z,79.30
2018-06-05T22:21:39.397Z,79.70
2018-06-05T22:24:07.394Z,80.30
2018-06-05T22:26:34.915Z,80.50
2018-06-05T22:29:02.467Z,81.10
2018-06-05T22:31:30.026Z,81.50
2018-06-05T22:33:57.551Z,81.90
2018-06-05T22:36:25.387Z,82.40
2018-06-05T22:38:52.929Z,82.80
2018-06-05T22:41:20.447Z,83.10
2018-06-05T22:43:47.980Z,83.50
2018-06-05T22:46:15.573Z,83.80
2018-06-05T22:48:43.100Z,84.20
2018-06-05T22:51:10.662Z,84.90
2018-06-05T22:53:38.200Z,84.30
2018-06-05T22:56:05.699Z,84.50
2018-06-05T22:58:33.280Z,84.50
2018-06-05T23:01:00.802Z,84.20
2018-06-05T23:03:28.312Z,84.10
2018-06-05T23:05:55.845Z,83.90
2018-06-05T23:08:23.388Z,83.80
2018-06-05T23:10:50.936Z,83.80
2018-06-05T23:13:18.468Z,83.80
2018-06-05T23:15:46.002Z,84.00
2018-06-05T23:18:13.506Z,84.30
2018-06-05T23:20:41.026Z,84.70
2018-06-05T23:23:08.578Z,85.10
2018-06-05T23:25:36.150Z,85.40
2018-06-05T23:28:03.776Z,85.80
2018-06-05T23:30:31.366Z,86.10
2018-06-05T23:32:58.888Z,86.20
2018-06-05T23:35:26.423Z,86.70
2018-06-05T23:37:53.956Z,86.50
2018-06-05T23:40:21.460Z,86.50
2018-06-05T23:42:49.010Z,86.50
2018-06-05T23:45:16.583Z,86.60
2018-06-05T23:47:44.123Z,86.60
2018-06-05T23:50:11.665Z,86.60
2018-06-05T23:52:39.212Z,86.80
2018-06-05T23:55:06.738Z,87.00
2018-06-05T23:57:34.247Z,87.20
